Time;durP1;ratioP1;P1;durP2;ratioP2;P2;SDS_P1;SDS_P2;PMS_P1;PMS_P2;Temp;Humidity;BMP_temperature;BMP_pressure;BME280_temperature;BME280_humidity;BME280_pressure;Samples;Min_cycle;Max_cycle;Signal;HPM_P1;HPM_P2
2023/06/17 00:00:41;;;;;;;5.50;2.40;;;23.20;57.90;;;;;;5012399;28;20030;-59
2023/06/17 00:03:07;;;;;;;5.03;2.47;;;23.10;57.80;;;;;;5012651;28;20443;-59
2023/06/17 00:05:33;;;;;;;3.88;2.10;;;23.20;57.90;;;;;;4994822;28;20120;-59
2023/06/17 00:07:58;;;;;;;3.63;2.20;;;23.20;57.90;;;;;;5012596;28;20117;-59
2023/06/17 00:10:24;;;;;;;4.20;2.03;;;23.10;57.80;;;;;;5011587;28;20037;-59
2023/06/17 00:12:50;;;;;;;5.10;2.00;;;23.20;57.90;;;;;;5012718;28;20474;-59
2023/06/17 00:15:20;;;;;;;2.45;1.73;;;23.10;57.80;;;;;;5012525;28;20101;-59
2023/06/17 00:17:46;;;;;;;3.80;1.83;;;23.10;57.80;;;;;;5012580;28;20105;-59
2023/06/17 00:20:13;;;;;;;3.28;2.13;;;23.10;57.80;;;;;;5012112;28;20054;-59
2023/06/17 00:22:43;;;;;;;3.88;2.50;;;23.10;57.80;;;;;;5012315;28;20033;-59
2023/06/17 00:25:11;;;;;;;3.30;1.92;;;23.20;57.80;;;;;;5012337;28;20061;-59
2023/06/17 00:27:37;;;;;;;2.47;1.88;;;23.10;57.70;;;;;;5012328;28;20486;-59
2023/06/17 00:30:03;;;;;;;3.13;1.95;;;23.10;57.70;;;;;;5012194;28;20066;-59
2023/06/17 00:32:32;;;;;;;3.17;2.00;;;23.10;57.70;;;;;;5011122;28;20092;-59
2023/06/17 00:34:57;;;;;;;3.38;1.92;;;23.10;57.70;;;;;;5012358;28;20037;-59
2023/06/17 00:37:23;;;;;;;3.58;2.28;;;23.10;57.70;;;;;;5018366;28;20036;-60
2023/06/17 00:39:49;;;;;;;5.75;2.15;;;23.10;57.70;;;;;;5010558;28;20033;-60
2023/06/17 00:42:15;;;;;;;6.68;2.05;;;23.10;57.70;;;;;;5018482;28;20425;-60
2023/06/17 00:44:41;;;;;;;3.28;1.90;;;23.10;58.20;;;;;;5008653;28;20037;-60
2023/06/17 00:47:10;;;;;;;3.80;2.15;;;23.20;57.60;;;;;;5009492;28;20473;-60
2023/06/17 00:49:38;;;;;;;3.20;1.98;;;23.10;57.50;;;;;;5010213;28;20033;-58
2023/06/17 00:52:07;;;;;;;4.50;2.00;;;23.10;57.50;;;;;;5011725;28;20492;-59
2023/06/17 00:54:40;;;;;;;4.00;2.50;;;23.20;57.50;;;;;;5012017;28;20032;-59
2023/06/17 00:57:09;;;;;;;3.47;1.90;;;23.20;57.50;;;;;;5010666;28;20108;-59
2023/06/17 00:59:37;;;;;;;3.63;2.10;;;23.20;57.50;;;;;;5011893;28;20025;-59
2023/06/17 01:02:06;;;;;;;3.42;1.95;;;23.20;57.50;;;;;;5010445;28;20061;-59
2023/06/17 01:04:33;;;;;;;5.35;2.05;;;23.20;57.50;;;;;;5010752;28;20048;-60
2023/06/17 01:07:09;;;;;;;3.60;1.88;;;23.10;57.50;;;;;;5011773;28;20095;-59
2023/06/17 01:09:38;;;;;;;4.35;1.90;;;23.20;57.50;;;;;;5011825;28;20032;-59
2023/06/17 01:12:07;;;;;;;4.68;1.90;;;23.10;57.40;;;;;;5010333;28;20473;-59
2023/06/17 01:14:34;;;;;;;2.45;1.80;;;23.20;57.60;;;;;;5011809;28;20026;-59
2023/06/17 01:17:03;;;;;;;6.10;2.10;;;23.10;57.50;;;;;;5010481;28;20029;-59
2023/06/17 01:19:29;;;;;;;3.47;2.10;;;23.10;57.50;;;;;;5011759;28;20026;-59
2023/06/17 01:21:56;;;;;;;4.13;1.83;;;23.10;57.50;;;;;;5013119;28;20026;-60
2023/06/17 01:24:28;;;;;;;4.15;1.92;;;23.10;57.50;;;;;;5014474;28;20026;-60
2023/06/17 01:26:59;;;;;;;4.65;2.33;;;23.10;57.50;;;;;;5015581;28;20022;-59
2023/06/17 01:29:29;;;;;;;4.18;2.17;;;23.10;57.50;;;;;;5015529;28;20037;-59
2023/06/17 01:31:59;;;;;;;2.60;1.88;;;23.10;57.50;;;;;;5015211;28;20054;-59
2023/06/17 01:34:54;;;;;;;3.92;2.10;;;23.10;57.50;;;;;;5015495;28;20026;-59
2023/06/17 01:37:42;;;;;;;3.17;2.00;;;23.10;57.40;;;;;;5014022;28;20037;-60
2023/06/17 01:40:12;;;;;;;2.50;1.83;;;23.10;57.40;;;;;;5003638;28;20053;-59
2023/06/17 01:42:43;;;;;;;3.28;2.00;;;23.10;57.50;;;;;;5018490;28;20033;-59
2023/06/17 01:45:10;;;;;;;3.80;2.10;;;23.10;57.50;;;;;;5011628;28;20033;-59
2023/06/17 01:47:36;;;;;;;2.88;1.98;;;23.10;57.40;;;;;;5013132;28;20025;-59
2023/06/17 01:50:04;;;;;;;2.38;1.70;;;23.10;57.40;;;;;;5014145;28;20026;-59
2023/06/17 01:52:30;;;;;;;3.83;1.73;;;23.10;57.40;;;;;;5013738;28;20026;-59
2023/06/17 01:54:57;;;;;;;4.30;1.80;;;23.10;57.40;;;;;;5014926;28;20030;-59
2023/06/17 01:57:25;;;;;;;2.50;1.85;;;23.10;57.40;;;;;;5014945;28;20026;-59
2023/06/17 01:59:55;;;;;;;4.43;2.30;;;23.10;57.40;;;;;;5013449;28;20113;-59
2023/06/17 02:02:22;;;;;;;4.47;2.10;;;23.10;57.40;;;;;;5013697;28;20034;-59
2023/06/17 02:04:49;;;;;;;2.28;1.75;;;23.10;57.40;;;;;;5014693;28;20030;-59
2023/06/17 02:07:18;;;;;;;2.72;1.73;;;23.10;57.40;;;;;;5013595;28;20030;-59
2023/06/17 02:09:44;;;;;;;5.25;2.00;;;23.10;57.30;;;;;;5014813;28;20400;-59
2023/06/17 02:12:11;;;;;;;3.28;1.90;;;23.10;57.30;;;;;;5014577;28;20417;-59
2023/06/17 02:14:37;;;;;;;4.00;1.95;;;23.10;57.30;;;;;;5014664;28;20440;-59
2023/06/17 02:17:03;;;;;;;3.45;2.13;;;23.00;57.30;;;;;;5014514;28;20026;-59
2023/06/17 02:19:31;;;;;;;4.90;2.53;;;23.00;57.40;;;;;;5013252;28;20034;-59
2023/06/17 02:21:59;;;;;;;2.55;1.95;;;23.00;57.40;;;;;;5013275;28;20401;-59
2023/06/17 02:24:25;;;;;;;2.78;1.90;;;23.00;57.30;;;;;;5012805;28;20048;-59
2023/06/17 02:26:51;;;;;;;3.03;2.00;;;23.10;57.30;;;;;;5014340;28;20037;-59
2023/06/17 02:29:17;;;;;;;4.40;2.20;;;23.10;57.20;;;;;;5014345;28;20029;-59
2023/06/17 02:31:43;;;;;;;3.80;1.80;;;23.10;57.20;;;;;;5014077;28;20026;-59
2023/06/17 02:34:09;;;;;;;3.30;2.35;;;23.10;57.20;;;;;;5013738;28;20018;-59
2023/06/17 02:36:38;;;;;;;3.25;2.10;;;23.00;57.70;;;;;;5012928;28;20120;-59
2023/06/17 02:39:05;;;;;;;3.22;2.03;;;23.10;57.20;;;;;;5012485;28;20029;-60
2023/06/17 02:41:31;;;;;;;2.20;1.85;;;23.10;57.10;;;;;;5008215;28;20412;-59
2023/06/17 02:43:57;;;;;;;2.75;2.10;;;23.10;57.10;;;;;;5010247;28;20041;-59
2023/06/17 02:46:24;;;;;;;2.50;1.70;;;23.10;57.20;;;;;;5012803;28;20030;-59
2023/06/17 02:48:51;;;;;;;2.45;2.00;;;23.10;57.20;;;;;;5031258;28;20021;-59
2023/06/17 02:51:17;;;;;;;3.67;1.85;;;23.10;57.10;;;;;;5015610;28;20026;-59
2023/06/17 02:53:43;;;;;;;3.40;2.10;;;23.10;57.10;;;;;;5016031;28;20025;-59
2023/06/17 02:56:11;;;;;;;2.90;2.10;;;23.00;57.10;;;;;;5015790;28;20033;-59
2023/06/17 02:58:37;;;;;;;2.72;1.92;;;23.10;57.20;;;;;;5015903;28;20592;-59
2023/06/17 03:01:05;;;;;;;4.85;2.15;;;23.00;57.10;;;;;;5033317;28;20041;-59
2023/06/17 03:03:36;;;;;;;;;;;23.00;57.10;;;;;;5016369;28;20034;-59
2023/06/17 03:06:07;;;;;;;2.92;2.10;;;23.00;57.20;;;;;;5015577;28;19971;-59
2023/06/17 03:08:37;;;;;;;2.90;2.00;;;23.10;57.20;;;;;;5015709;28;20021;-59
2023/06/17 03:11:03;;;;;;;2.55;1.88;;;23.00;57.20;;;;;;5015381;28;20033;-59
2023/06/17 03:13:31;;;;;;;2.58;2.10;;;23.00;57.10;;;;;;5015847;28;20402;-59
2023/06/17 03:16:00;;;;;;;2.83;2.00;;;23.00;57.10;;;;;;5015588;28;20067;-59
2023/06/17 03:18:28;;;;;;;3.35;2.22;;;23.00;57.20;;;;;;5015584;28;20033;-59
2023/06/17 03:20:54;;;;;;;3.70;2.03;;;23.00;57.20;;;;;;5015224;28;20475;-59
2023/06/17 03:23:22;;;;;;;2.60;2.20;;;23.00;57.10;;;;;;5015296;28;20034;-59
2023/06/17 03:25:50;;;;;;;4.90;2.38;;;23.00;57.20;;;;;;5015357;28;20036;-59
2023/06/17 03:28:17;;;;;;;3.03;2.10;;;23.00;57.20;;;;;;5015444;28;20036;-60
2023/06/17 03:30:44;;;;;;;2.85;1.98;;;23.00;57.10;;;;;;5015415;28;20047;-60
2023/06/17 03:33:13;;;;;;;2.85;2.13;;;23.00;57.20;;;;;;4999550;28;20128;-59
2023/06/17 03:35:39;;;;;;;3.25;2.03;;;23.00;57.20;;;;;;5015329;28;20061;-60
2023/06/17 03:38:05;;;;;;;3.42;2.00;;;23.00;57.20;;;;;;5031726;28;20079;-60
2023/06/17 03:40:31;;;;;;;2.80;2.22;;;23.00;57.20;;;;;;5014911;28;20119;-60
2023/06/17 03:42:59;;;;;;;3.15;2.17;;;23.00;57.10;;;;;;5015036;28;20471;-60
2023/06/17 03:45:25;;;;;;;2.85;2.10;;;23.00;57.10;;;;;;5014058;28;20121;-59
2023/06/17 03:47:55;;;;;;;;;;;23.00;57.20;;;;;;5015213;28;20064;-59
2023/06/17 03:50:21;;;;;;;2.97;2.15;;;23.00;57.10;;;;;;5014776;28;19983;-60
2023/06/17 03:52:46;;;;;;;3.75;2.20;;;22.90;57.00;;;;;;5032599;28;20108;-59
2023/06/17 03:55:13;;;;;;;4.68;2.38;;;22.90;57.10;;;;;;5014751;28;20029;-59
2023/06/17 03:57:40;;;;;;;2.90;2.20;;;22.90;57.10;;;;;;5032488;28;20025;-59
2023/06/17 04:00:06;;;;;;;3.58;1.95;;;23.00;57.20;;;;;;5032090;28;20087;-59
2023/06/17 04:02:44;;;;;;;4.50;2.20;;;22.90;57.10;;;;;;5032479;28;20037;-59
2023/06/17 04:05:12;;;;;;;2.97;1.98;;;22.90;57.10;;;;;;5014515;28;20041;-59
2023/06/17 04:07:39;;;;;;;5.03;2.40;;;22.90;57.10;;;;;;5032301;28;20049;-59
2023/06/17 04:10:09;;;;;;;3.22;2.10;;;22.90;57.10;;;;;;5031991;28;20026;-59
2023/06/17 04:12:37;;;;;;;3.50;2.17;;;22.90;57.10;;;;;;4998365;28;20034;-59
2023/06/17 04:15:05;;;;;;;2.90;2.17;;;23.00;57.10;;;;;;5014621;28;20480;-59
2023/06/17 04:17:31;;;;;;;2.83;2.25;;;23.00;57.00;;;;;;4998118;28;20033;-59
2023/06/17 04:20:03;;;;;;;2.90;2.15;;;23.00;57.00;;;;;;5014190;28;20155;-59
2023/06/17 04:22:29;;;;;;;3.20;2.10;;;22.90;56.90;;;;;;5014429;28;20500;-59
2023/06/17 04:24:55;;;;;;;3.00;2.33;;;22.90;56.90;;;;;;5031867;28;20064;-59
2023/06/17 04:27:22;;;;;;;3.47;2.30;;;23.00;57.00;;;;;;5014412;28;20068;-59
2023/06/17 04:29:48;;;;;;;2.97;2.20;;;23.00;57.00;;;;;;5014331;28;20026;-60
2023/06/17 04:32:15;;;;;;;3.00;2.00;;;23.00;56.90;;;;;;5031889;28;20412;-58
2023/06/17 04:34:47;;;;;;;3.45;2.30;;;23.00;57.00;;;;;;5014529;28;20507;-59
2023/06/17 04:37:14;;;;;;;5.22;2.70;;;23.00;56.80;;;;;;5014524;28;20407;-59
2023/06/17 04:39:42;;;;;;;4.22;2.08;;;23.00;56.90;;;;;;5014131;28;20029;-59
2023/06/17 04:42:09;;;;;;;3.20;2.33;;;23.00;57.00;;;;;;5013900;28;20030;-59
2023/06/17 04:44:39;;;;;;;3.67;2.35;;;22.90;56.90;;;;;;4997686;28;20083;-59
2023/06/17 04:47:10;;;;;;;4.00;2.60;;;23.00;57.00;;;;;;5013825;28;20046;-59
2023/06/17 04:49:41;;;;;;;3.35;2.20;;;22.90;57.00;;;;;;5014189;28;20025;-59
2023/06/17 04:52:13;;;;;;;3.08;2.40;;;22.90;57.00;;;;;;5013829;28;20053;-59
2023/06/17 04:54:41;;;;;;;2.83;2.03;;;22.90;56.90;;;;;;5014112;28;20147;-59
2023/06/17 04:57:08;;;;;;;4.28;2.38;;;22.90;57.00;;;;;;5013676;28;20037;-59
2023/06/17 04:59:35;;;;;;;6.05;2.78;;;23.00;57.10;;;;;;5013992;28;20115;-60
2023/06/17 05:02:03;;;;;;;3.08;2.38;;;22.90;57.00;;;;;;5013905;28;20381;-59
2023/06/17 05:04:29;;;;;;;4.53;2.50;;;22.90;57.00;;;;;;5031561;28;20492;-59
2023/06/17 05:06:55;;;;;;;4.30;2.33;;;22.90;57.00;;;;;;5013819;28;20493;-59
2023/06/17 05:09:22;;;;;;;4.68;2.50;;;23.00;57.10;;;;;;5013888;28;20047;-59
2023/06/17 05:11:49;;;;;;;2.95;2.45;;;22.90;57.00;;;;;;5013607;28;20026;-59
2023/06/17 05:14:15;;;;;;;5.78;2.53;;;23.00;57.10;;;;;;5013910;28;20033;-59
2023/06/17 05:16:41;;;;;;;4.20;2.47;;;22.90;57.00;;;;;;5013720;28;20030;-60
2023/06/17 05:19:07;;;;;;;3.92;2.50;;;22.90;57.00;;;;;;5013710;28;20053;-59
2023/06/17 05:21:33;;;;;;;3.97;2.20;;;22.90;57.00;;;;;;5013498;28;20080;-59
2023/06/17 05:23:59;;;;;;;4.22;2.60;;;22.90;57.00;;;;;;5031306;28;20501;-59
2023/06/17 05:26:25;;;;;;;5.93;2.63;;;22.90;57.00;;;;;;5013621;28;20476;-59
2023/06/17 05:28:51;;;;;;;4.70;2.60;;;22.90;57.00;;;;;;5013771;28;20026;-59
2023/06/17 05:31:18;;;;;;;2.97;2.35;;;22.90;56.90;;;;;;5013488;28;20029;-59
2023/06/17 05:33:44;;;;;;;4.38;3.05;;;23.00;57.00;;;;;;5013707;28;20104;-59
2023/06/17 05:36:10;;;;;;;4.47;2.70;;;22.90;56.90;;;;;;5030082;28;20057;-59
2023/06/17 05:38:36;;;;;;;4.47;2.97;;;22.90;57.00;;;;;;5013674;28;20029;-59
2023/06/17 05:41:02;;;;;;;3.70;2.80;;;22.90;56.90;;;;;;5030898;28;20049;-59
2023/06/17 05:43:30;;;;;;;3.65;2.53;;;23.00;57.10;;;;;;5013544;28;20033;-59
2023/06/17 05:45:57;;;;;;;4.68;2.58;;;22.90;57.00;;;;;;5013421;28;20033;-59
2023/06/17 05:48:23;;;;;;;5.68;3.10;;;22.90;57.00;;;;;;5011562;28;20653;-58
2023/06/17 05:50:49;;;;;;;4.72;3.00;;;22.90;57.00;;;;;;4993171;28;20087;-59
2023/06/17 05:53:15;;;;;;;5.53;2.80;;;22.90;57.00;;;;;;5009297;28;20079;-59
2023/06/17 05:55:41;;;;;;;4.43;2.80;;;23.00;57.00;;;;;;5025931;28;20025;-59
2023/06/17 05:58:08;;;;;;;4.40;2.92;;;22.90;57.00;;;;;;5009551;28;20025;-59
2023/06/17 06:00:36;;;;;;;4.45;2.80;;;22.90;57.00;;;;;;5012509;28;20032;-59
2023/06/17 06:03:02;;;;;;;3.20;2.63;;;22.90;56.90;;;;;;5013488;28;20041;-60
2023/06/17 06:05:28;;;;;;;3.35;2.60;;;23.00;57.00;;;;;;5030766;28;20041;-59
2023/06/17 06:07:54;;;;;;;5.13;2.92;;;22.90;57.00;;;;;;5013385;28;20025;-59
2023/06/17 06:10:20;;;;;;;5.70;2.55;;;22.90;56.90;;;;;;5016557;28;20095;-59
2023/06/17 06:12:52;;;;;;;4.40;2.78;;;23.00;57.00;;;;;;5033564;28;20436;-60
2023/06/17 06:15:18;;;;;;;4.05;2.97;;;23.00;56.90;;;;;;5016661;28;20048;-59
2023/06/17 06:17:44;;;;;;;5.30;2.70;;;23.00;56.80;;;;;;5016969;28;20473;-59
2023/06/17 06:20:12;;;;;;;3.63;2.72;;;23.00;56.80;;;;;;5036241;28;20034;-59
2023/06/17 06:22:37;;;;;;;3.58;2.53;;;23.00;56.90;;;;;;5021711;28;20435;-59
2023/06/17 06:25:05;;;;;;;4.20;2.80;;;23.00;56.80;;;;;;5020757;28;20399;-59
2023/06/17 06:27:31;;;;;;;4.25;2.80;;;23.00;56.80;;;;;;5016741;28;20049;-59
2023/06/17 06:29:58;;;;;;;4.35;2.83;;;23.00;56.90;;;;;;5000233;28;20041;-59
2023/06/17 06:32:24;;;;;;;4.65;3.13;;;22.90;56.90;;;;;;5016745;28;20369;-59
2023/06/17 06:34:51;;;;;;;5.18;2.92;;;23.00;56.90;;;;;;5033190;28;20038;-59
2023/06/17 06:37:17;;;;;;;4.90;3.10;;;22.90;57.00;;;;;;5016428;28;20535;-59
2023/06/17 06:39:43;;;;;;;4.07;3.05;;;22.90;57.00;;;;;;5016369;28;20033;-59
2023/06/17 06:42:11;;;;;;;4.28;3.05;;;22.90;56.90;;;;;;5016081;28;20600;-59
2023/06/17 06:44:49;;;;;;;3.42;2.78;;;22.90;57.00;;;;;;5032756;28;20033;-59
2023/06/17 06:47:16;;;;;;;3.97;2.67;;;22.90;57.00;;;;;;5016682;28;20033;-59
2023/06/17 06:49:42;;;;;;;4.20;2.70;;;22.90;57.00;;;;;;5016066;28;20030;-59
2023/06/17 06:52:08;;;;;;;4.40;2.65;;;22.90;57.00;;;;;;5016133;28;20554;-59
2023/06/17 06:54:34;;;;;;;3.92;2.53;;;22.90;57.00;;;;;;5016146;28;20098;-59
2023/06/17 06:57:01;;;;;;;3.90;2.85;;;22.90;57.00;;;;;;5015905;28;20034;-59
2023/06/17 06:59:27;;;;;;;4.57;2.85;;;22.90;57.00;;;;;;5033684;28;20033;-59
2023/06/17 07:01:53;;;;;;;4.28;2.88;;;22.90;57.00;;;;;;5015787;28;20060;-59
2023/06/17 07:04:21;;;;;;;3.95;2.65;;;22.90;57.10;;;;;;5033523;28;20022;-59
2023/06/17 07:06:52;;;;;;;4.95;2.92;;;22.90;57.00;;;;;;4999287;28;20041;-60
2023/06/17 07:09:23;;;;;;;4.47;2.95;;;22.90;57.00;;;;;;5015832;28;20030;-57
2023/06/17 07:11:49;;;;;;;4.05;2.95;;;22.90;57.10;;;;;;5015458;28;20128;-59
2023/06/17 07:14:15;;;;;;;6.15;3.65;;;22.90;57.10;;;;;;5032205;28;20025;-59
2023/06/17 07:16:42;;;;;;;4.97;3.13;;;22.90;57.10;;;;;;5015467;28;20101;-59
2023/06/17 07:19:08;;;;;;;5.30;3.08;;;22.90;57.10;;;;;;5015585;28;20488;-59
2023/06/17 07:21:34;;;;;;;5.22;2.95;;;22.90;57.00;;;;;;5015399;28;20021;-61
2023/06/17 07:24:01;;;;;;;3.88;3.00;;;22.90;57.10;;;;;;5015428;28;20064;-59
2023/06/17 07:26:27;;;;;;;4.18;2.80;;;22.90;57.10;;;;;;5015277;28;20032;-59
2023/06/17 07:28:53;;;;;;;4.45;3.05;;;22.90;57.10;;;;;;5015508;28;20484;-58
2023/06/17 07:31:20;;;;;;;4.07;2.97;;;22.90;57.10;;;;;;5015123;28;20308;-59
2023/06/17 07:33:46;;;;;;;5.20;3.22;;;22.90;57.20;;;;;;5015366;28;20037;-59
2023/06/17 07:36:12;;;;;;;3.55;2.88;;;22.90;57.10;;;;;;5015247;28;20037;-59
2023/06/17 07:38:38;;;;;;;4.03;2.78;;;22.90;57.10;;;;;;5015240;28;20029;-59
2023/06/17 07:41:04;;;;;;;4.53;3.38;;;22.90;57.20;;;;;;5031385;28;20037;-59
2023/06/17 07:43:30;;;;;;;5.90;3.15;;;22.90;57.10;;;;;;5032977;28;20033;-59
2023/06/17 07:45:56;;;;;;;4.72;3.28;;;22.90;57.20;;;;;;5032545;28;20088;-59
2023/06/17 07:48:22;;;;;;;4.65;3.30;;;22.90;57.20;;;;;;5032723;28;20469;-60
2023/06/17 07:50:48;;;;;;;4.22;3.15;;;22.90;57.10;;;;;;5032316;28;20040;-60
2023/06/17 07:53:15;;;;;;;4.85;3.03;;;22.90;57.10;;;;;;5032597;28;20037;-60
2023/06/17 07:55:41;;;;;;;6.10;3.00;;;22.90;57.10;;;;;;5032444;28;20080;-60
2023/06/17 07:58:07;;;;;;;5.57;3.22;;;22.90;57.10;;;;;;5032543;28;20030;-60
2023/06/17 08:00:32;;;;;;;5.18;3.20;;;22.90;57.00;;;;;;5014624;28;20095;-60
2023/06/17 08:02:58;;;;;;;4.75;3.38;;;22.90;57.00;;;;;;5032529;28;20034;-60
2023/06/17 08:05:24;;;;;;;4.00;2.92;;;23.00;57.10;;;;;;5032056;28;20029;-60
2023/06/17 08:07:50;;;;;;;4.47;3.10;;;22.90;57.00;;;;;;5032380;28;20022;-60
2023/06/17 08:10:15;;;;;;;3.67;2.90;;;22.90;57.00;;;;;;5014472;28;20378;-60
2023/06/17 08:12:42;;;;;;;5.28;3.15;;;23.00;57.00;;;;;;5032144;28;20099;-60
2023/06/17 08:15:08;;;;;;;6.88;3.35;;;23.00;57.60;;;;;;5032017;28;20435;-60
2023/06/17 08:17:35;;;;;;;5.45;3.15;;;22.90;57.00;;;;;;5032441;28;20029;-60
2023/06/17 08:20:00;;;;;;;4.07;3.00;;;23.00;57.00;;;;;;5031878;28;20048;-60
2023/06/17 08:22:26;;;;;;;4.45;3.00;;;23.00;57.10;;;;;;5014469;28;20492;-60
2023/06/17 08:24:53;;;;;;;4.68;3.05;;;22.90;57.00;;;;;;5031959;28;20052;-60
2023/06/17 08:27:18;;;;;;;3.90;2.95;;;22.90;56.90;;;;;;5031992;28;20101;-60
2023/06/17 08:29:44;;;;;;;9.52;3.30;;;23.00;57.10;;;;;;5031759;28;20156;-60
2023/06/17 08:32:10;;;;;;;4.30;3.00;;;22.90;57.00;;;;;;5031212;28;20069;-60
2023/06/17 08:34:36;;;;;;;5.90;3.20;;;22.90;57.00;;;;;;5031890;28;20036;-60
2023/06/17 08:37:04;;;;;;;3.42;2.80;;;22.90;57.00;;;;;;5031856;28;20021;-60
2023/06/17 08:39:33;;;;;;;4.43;3.10;;;22.90;57.00;;;;;;5031861;28;20026;-60
2023/06/17 08:41:59;;;;;;;5.35;3.28;;;22.90;57.10;;;;;;5031658;28;20457;-61
2023/06/17 08:44:28;;;;;;;6.40;3.40;;;22.90;57.00;;;;;;5031704;28;20029;-60
2023/06/17 08:46:57;;;;;;;4.63;3.20;;;22.90;57.10;;;;;;5031675;28;20053;-60
2023/06/17 08:49:24;;;;;;;4.10;3.10;;;22.90;57.10;;;;;;5031678;28;20552;-60
2023/06/17 08:51:50;;;;;;;5.13;3.35;;;22.90;57.10;;;;;;5031433;28;20021;-60
2023/06/17 08:54:18;;;;;;;4.97;3.25;;;22.90;57.10;;;;;;5031556;28;20029;-60
2023/06/17 08:56:44;;;;;;;5.72;3.30;;;22.90;57.20;;;;;;5031560;28;20113;-60
2023/06/17 08:59:10;;;;;;;4.82;3.60;;;22.90;57.20;;;;;;5031648;28;20061;-61
2023/06/17 09:01:38;;;;;;;4.35;3.47;;;22.90;57.30;;;;;;5026937;28;20041;-60
2023/06/17 09:04:05;;;;;;;6.95;3.65;;;22.90;57.30;;;;;;5027830;28;20030;-60
2023/06/17 09:06:31;;;;;;;4.10;3.40;;;22.90;57.30;;;;;;5027485;28;20034;-60
2023/06/17 09:08:58;;;;;;;4.63;3.50;;;22.90;57.30;;;;;;5028270;28;20032;-60
2023/06/17 09:11:31;;;;;;;7.03;3.45;;;22.90;57.40;;;;;;5052096;23;20087;-57
2023/06/17 09:13:59;;;;;;;6.78;3.72;;;22.90;57.40;;;;;;5021827;28;20022;-58
2023/06/17 09:16:29;;;;;;;4.43;3.50;;;22.90;57.40;;;;;;5031452;28;20084;-53
2023/06/17 09:19:03;;;;;;;5.30;3.67;;;22.90;57.40;;;;;;5031300;28;20060;-56
2023/06/17 09:21:30;;;;;;;5.63;3.42;;;22.90;57.40;;;;;;5031013;28;20025;-58
2023/06/17 09:23:57;;;;;;;6.55;3.60;;;22.90;57.40;;;;;;5031398;28;20029;-54
2023/06/17 09:26:27;;;;;;;5.07;3.45;;;22.90;57.40;;;;;;5031363;28;20117;-54
2023/06/17 09:28:58;;;;;;;4.88;3.50;;;22.90;57.50;;;;;;5031409;28;20021;-58
2023/06/17 09:31:26;;;;;;;6.82;3.95;;;22.90;57.60;;;;;;5030949;28;20030;-58
2023/06/17 09:33:52;;;;;;;4.75;3.42;;;22.90;57.50;;;;;;5031426;28;20554;-58
2023/06/17 09:36:19;;;;;;;4.85;3.33;;;22.80;57.50;;;;;;5031338;28;20029;-59
2023/06/17 09:38:45;;;;;;;4.88;3.70;;;22.80;57.50;;;;;;5031306;28;20147;-59
2023/06/17 09:41:14;;;;;;;5.22;3.53;;;22.90;57.60;;;;;;5030905;28;20100;-58
2023/06/17 09:43:43;;;;;;;4.47;3.70;;;22.80;57.50;;;;;;5032289;28;20048;-56
2023/06/17 09:46:10;;;;;;;5.10;3.95;;;22.90;57.60;;;;;;5034800;28;20086;-54
2023/06/17 09:48:40;;;;;;;4.60;3.63;;;22.90;57.50;;;;;;5035153;28;20033;-59
2023/06/17 09:51:12;;;;;;;5.45;3.60;;;22.90;58.00;;;;;;5034476;28;20029;-56
2023/06/17 09:53:41;;;;;;;7.03;3.70;;;22.90;57.50;;;;;;5035079;28;20487;-58
2023/06/17 09:56:10;;;;;;;5.23;3.77;;;22.90;57.40;;;;;;5035115;28;20087;-56
2023/06/17 09:58:37;;;;;;;5.50;3.75;;;22.90;57.50;;;;;;5034833;28;20030;-57
2023/06/17 10:01:07;;;;;;;5.40;3.97;;;22.90;57.60;;;;;;5034406;28;20435;-56
2023/06/17 10:03:34;;;;;;;4.07;3.50;;;22.80;57.50;;;;;;5034996;28;20036;-58
2023/06/17 10:06:07;;;;;;;4.68;3.63;;;22.80;57.60;;;;;;5034539;28;20033;-57
2023/06/17 10:08:36;;;;;;;6.05;3.95;;;22.80;57.60;;;;;;5034717;28;20029;-58
2023/06/17 10:11:02;;;;;;;4.82;3.75;;;22.80;57.60;;;;;;5034043;28;20112;-59
2023/06/17 10:13:54;;;;;;;5.13;3.55;;;22.80;57.60;;;;;;5034523;28;20109;-59
2023/06/17 10:16:23;;;;;;;5.20;3.65;;;22.80;57.60;;;;;;5034462;28;20033;-59
2023/06/17 10:18:51;;;;;;;6.43;4.18;;;22.80;57.60;;;;;;5034355;28;20053;-59
2023/06/17 10:21:20;;;;;;;4.78;3.60;;;22.80;57.60;;;;;;5034196;28;20404;-57
2023/06/17 10:23:47;;;;;;;4.63;3.60;;;22.80;57.60;;;;;;5034462;28;20029;-57
2023/06/17 10:26:13;;;;;;;6.15;4.03;;;22.80;57.60;;;;;;5034171;28;20025;-58
2023/06/17 10:28:59;;;;;;;4.57;3.55;;;22.80;57.60;;;;;;5034180;28;20036;-56
2023/06/17 10:31:26;;;;;;;6.90;4.15;;;22.80;57.60;;;;;;5033802;28;20037;-58
2023/06/17 10:33:53;;;;;;;4.88;3.63;;;22.80;57.70;;;;;;5034067;28;20025;-57
2023/06/17 10:36:23;;;;;;;6.10;3.97;;;22.80;57.60;;;;;;5034088;28;20087;-57
2023/06/17 10:39:07;;;;;;;5.35;4.28;;;22.80;57.60;;;;;;5033978;28;20209;-54
2023/06/17 10:41:42;;;;;;;5.82;4.13;;;22.80;57.60;;;;;;5034120;28;20029;-56
2023/06/17 10:44:20;;;;;;;5.07;4.00;;;22.80;57.70;;;;;;5034027;28;20022;-58
2023/06/17 10:46:49;;;;;;;5.80;4.40;;;22.80;57.50;;;;;;5033561;28;20461;-58
2023/06/17 10:49:16;;;;;;;8.00;4.30;;;22.80;57.60;;;;;;5033851;28;20025;-58
2023/06/17 10:51:55;;;;;;;7.10;4.60;;;22.80;57.60;;;;;;5033600;28;20030;-60
2023/06/17 10:54:30;;;;;;;6.75;4.65;;;22.80;57.60;;;;;;5033339;28;20028;-55
2023/06/17 10:56:56;;;;;;;6.63;4.28;;;22.80;57.60;;;;;;5033653;28;20452;-57
2023/06/17 10:59:32;;;;;;;6.60;4.38;;;22.80;57.50;;;;;;5033624;28;20123;-56
2023/06/17 11:02:08;;;;;;;5.40;4.18;;;22.80;57.50;;;;;;5033242;28;20049;-57
2023/06/17 11:04:36;;;;;;;7.05;4.07;;;22.90;57.50;;;;;;5033549;28;20033;-56
2023/06/17 11:07:04;;;;;;;6.57;4.13;;;22.80;57.50;;;;;;5033479;28;20045;-56
2023/06/17 11:09:32;;;;;;;7.15;4.57;;;22.80;57.60;;;;;;5048840;28;20033;-54
2023/06/17 11:12:00;;;;;;;6.60;4.28;;;22.80;57.60;;;;;;5031786;28;20084;-56
2023/06/17 11:14:27;;;;;;;5.68;4.30;;;22.80;57.50;;;;;;5032137;28;20034;-53
2023/06/17 11:16:53;;;;;;;6.05;4.20;;;22.80;57.60;;;;;;5033246;28;20030;-56
2023/06/17 11:19:20;;;;;;;6.85;4.63;;;22.80;57.50;;;;;;5033273;28;20393;-55
2023/06/17 11:21:49;;;;;;;6.10;4.10;;;22.80;57.50;;;;;;5032780;28;20096;-57
2023/06/17 11:24:15;;;;;;;5.80;4.18;;;22.80;57.50;;;;;;5033114;28;20117;-56
2023/06/17 11:26:42;;;;;;;6.28;4.20;;;22.80;57.50;;;;;;5033085;28;20575;-56
2023/06/17 11:29:09;;;;;;;8.35;4.20;;;22.80;57.50;;;;;;5033273;28;20053;-56
2023/06/17 11:31:40;;;;;;;6.32;4.05;;;22.80;57.50;;;;;;5032662;28;20072;-55
2023/06/17 11:34:09;;;;;;;5.72;4.00;;;22.90;57.60;;;;;;5033001;28;20401;-55
2023/06/17 11:36:36;;;;;;;5.35;4.40;;;22.80;57.60;;;;;;5032887;28;20071;-54
2023/06/17 11:39:02;;;;;;;7.35;4.63;;;22.80;57.60;;;;;;5032640;28;20026;-55
2023/06/17 11:41:28;;;;;;;8.98;4.40;;;22.80;57.70;;;;;;5032476;28;20029;-59
2023/06/17 11:43:55;;;;;;;12.63;4.47;;;22.80;58.30;;;;;;5032726;28;20400;-56
2023/06/17 11:46:24;;;;;;;17.58;4.60;;;22.80;58.50;;;;;;5010381;28;20074;-59
2023/06/17 11:48:50;;;;;;;11.07;4.60;;;22.80;59.40;;;;;;5012891;28;20026;-58
